Time;durP1;ratioP1;P1;durP2;ratioP2;P2;SDS_P1;SDS_P2;PMS_P1;PMS_P2;Temp;Humidity;BMP_temperature;BMP_pressure;BME280_temperature;BME280_humidity;BME280_pressure;Samples;Min_cycle;Max_cycle;Signal;HPM_P1;HPM_P2
2023/06/21 00:04:20;;;;;;;9.93;4.40;;;;;;;14.23;90.29;100116.06;10294680;28;20042;-71
2023/06/21 00:09:21;;;;;;;18.85;4.70;;;;;;;14.19;90.21;100101.44;10292520;28;20046;-70
2023/06/21 00:14:22;;;;;;;13.48;4.82;;;;;;;14.26;90.49;100121.81;10293428;28;20050;-70
2023/06/21 00:19:23;;;;;;;9.80;4.65;;;;;;;14.11;90.69;100113.09;10293087;28;20039;-71
2023/06/21 00:24:24;;;;;;;9.35;4.10;;;;;;;13.68;91.35;100039.31;10292982;28;20042;-71
2023/06/21 00:29:24;;;;;;;8.32;4.40;;;;;;;13.91;91.35;100080.97;10293586;28;20038;-70
2023/06/21 00:34:25;;;;;;;12.68;3.92;;;;;;;14.07;91.53;100107.34;10291219;28;20133;-70
2023/06/21 00:39:26;;;;;;;13.98;4.45;;;;;;;14.02;91.94;100093.75;10292412;28;20533;-70
2023/06/21 00:44:26;;;;;;;40.30;4.75;;;;;;;14.02;92.50;100101.75;10291893;28;20061;-70
2023/06/21 00:49:27;;;;;;;22.05;5.00;;;;;;;14.01;92.33;100108.13;10293120;28;20042;-70
2023/06/21 00:54:40;;;;;;;15.02;4.05;;;;;;;14.01;94.22;100108.13;10292970;28;20483;-70
2023/06/21 00:59:41;;;;;;;10.13;4.22;;;;;;;13.55;92.21;100054.41;10292426;28;20039;-70
2023/06/21 01:04:42;;;;;;;25.50;4.60;;;;;;;13.92;92.91;100114.66;10291560;28;20192;-71
2023/06/21 01:10:33;;;;;;;12.60;3.90;;;;;;;14.08;95.21;100114.31;10291951;28;20031;-71
2023/06/21 01:15:46;;;;;;;17.98;3.80;;;;;;;13.54;93.44;100058.94;10274339;28;20503;-70
2023/06/21 01:20:53;;;;;;;14.00;4.30;;;;;;;13.80;93.21;100116.19;10291888;28;20042;-70
2023/06/21 01:26:20;;;;;;;15.50;3.80;;;;;;;13.74;93.95;100123.16;10291149;28;20627;-70
2023/06/21 01:31:22;;;;;;;11.63;3.50;;;;;;;13.63;92.84;100132.50;10291150;28;20046;-70
2023/06/21 01:36:24;;;;;;;21.52;4.07;;;;;;;13.29;93.43;100055.06;10299337;28;20407;-70
2023/06/21 01:41:25;;;;;;;15.93;4.20;;;;;;;13.72;93.10;100114.50;10299849;28;20043;-71
2023/06/21 01:46:27;;;;;;;47.28;5.13;;;;;;;13.77;92.83;100119.25;10299994;28;20050;-71
2023/06/21 01:51:28;;;;;;;17.02;4.30;;;;;;;13.67;93.01;100088.41;10299578;28;20062;-70
2023/06/21 01:56:31;;;;;;;12.95;5.22;;;;;;;13.28;93.31;99990.19;10298707;28;20035;-70
2023/06/21 02:01:33;;;;;;;23.05;4.63;;;;;;;14.07;93.34;100095.84;10298200;28;20996;-70
2023/06/21 02:06:35;;;;;;;17.30;5.93;;;;;;;14.39;93.55;100121.09;10298789;28;20050;-71
2023/06/21 02:11:36;;;;;;;21.23;5.13;;;;;;;14.60;92.91;100129.03;10297841;28;20081;-70
2023/06/21 02:16:36;;;;;;;26.20;5.65;;;;;;;14.33;92.61;100058.56;10298519;28;20097;-71
2023/06/21 02:21:37;;;;;;;9.98;4.72;;;;;;;15.12;92.78;100123.19;10296424;28;20042;-70
2023/06/21 02:26:38;;;;;;;8.10;4.70;;;;;;;15.79;92.15;100124.91;10296245;28;20049;-70
2023/06/21 02:31:39;;;;;;;11.02;4.60;;;;;;;16.65;90.44;100116.63;10298287;28;20043;-71
2023/06/21 02:36:40;;;;;;;8.30;3.90;;;;;;;17.66;87.77;100117.66;10297745;28;20086;-71
2023/06/21 02:41:41;;;;;;;14.95;3.90;;;;;;;18.57;84.90;100102.66;10297127;28;20096;-71
2023/06/21 02:46:42;;;;;;;11.18;4.13;;;;;;;19.45;81.53;100103.94;10297439;28;20051;-71
2023/06/21 02:51:44;;;;;;;8.02;4.35;;;;;;;20.57;77.04;100121.84;10297546;28;20046;-71
2023/06/21 02:56:44;;;;;;;10.88;4.55;;;;;;;21.40;73.62;100125.03;10296744;28;20039;-71
2023/06/21 03:01:47;;;;;;;9.27;4.78;;;;;;;22.02;69.94;100097.03;10296836;28;20125;-71
2023/06/21 03:06:48;;;;;;;11.27;4.35;;;;;;;22.70;66.45;100067.84;10296020;28;20046;-71
2023/06/21 03:11:49;;;;;;;10.95;3.95;;;;;;;23.33;63.64;100116.97;10296490;28;20050;-71
2023/06/21 03:16:50;;;;;;;9.02;4.25;;;;;;;23.11;62.98;100115.16;10295727;28;20049;-70
2023/06/21 03:21:51;;;;;;;9.43;4.15;;;;;;;22.77;62.41;100052.22;10294908;28;20054;-70
2023/06/21 03:26:51;;;;;;;8.38;4.80;;;;;;;23.62;61.60;100118.28;10295291;28;20046;-71
2023/06/21 03:31:52;;;;;;;11.93;5.05;;;;;;;23.50;60.94;100049.06;10295124;28;20498;-70
2023/06/21 03:36:53;;;;;;;7.38;4.30;;;;;;;24.39;59.90;100099.78;10296028;28;20130;-71
2023/06/21 03:41:54;;;;;;;8.25;4.63;;;;;;;25.74;57.13;100130.47;10289034;28;20071;-69
2023/06/21 03:46:55;;;;;;;8.30;5.57;;;;;;;26.26;54.57;100069.38;10293997;28;20039;-69
2023/06/21 03:51:55;;;;;;;12.25;6.45;;;;;;;26.95;53.90;100132.28;10294336;28;20463;-70
2023/06/21 03:56:56;;;;;;;8.88;4.30;;;;;;;27.79;51.92;100124.88;10292568;28;20034;-70
2023/06/21 04:01:57;;;;;;;9.93;4.13;;;;;;;28.10;49.87;100108.97;10294606;28;20066;-70
2023/06/21 04:06:58;;;;;;;6.38;3.97;;;;;;;28.50;48.82;100117.81;10293710;28;20053;-69
2023/06/21 04:11:58;;;;;;;9.23;3.83;;;;;;;28.62;48.81;100103.72;10292620;28;20053;-69
2023/06/21 04:16:59;;;;;;;11.23;4.30;;;;;;;28.87;47.67;100121.69;10293249;28;20522;-70
2023/06/21 04:22:00;;;;;;;15.75;4.20;;;;;;;28.70;47.41;100075.72;10293548;28;20043;-70
2023/06/21 04:27:02;;;;;;;7.35;4.57;;;;;;;29.11;46.44;100124.38;10291195;28;20138;-69
2023/06/21 04:32:04;;;;;;;9.73;4.13;;;;;;;29.56;46.12;100111.88;10292122;28;20056;-69
2023/06/21 04:37:08;;;;;;;8.27;3.92;;;;;;;29.48;45.97;100126.22;10291335;28;20046;-69
2023/06/21 04:42:09;;;;;;;10.65;4.05;;;;;;;29.55;46.60;100114.91;10292915;28;20126;-69
2023/06/21 04:47:11;;;;;;;;;;;;;;;30.97;44.59;100126.94;10292351;28;20059;-69
2023/06/21 04:52:12;;;;;;;7.03;3.97;;;;;;;29.32;45.37;100128.41;10291458;28;20309;-69
2023/06/21 04:57:13;;;;;;;7.07;4.80;;;;;;;29.22;45.31;100136.78;10292642;28;20070;-69
2023/06/21 05:02:14;;;;;;;16.65;6.40;;;;;;;28.95;45.98;100120.19;10292404;28;20105;-69
2023/06/21 05:07:14;;;;;;;6.03;3.33;;;;;;;28.63;45.52;100127.22;10291687;28;20038;-68
2023/06/21 05:12:15;;;;;;;4.35;3.10;;;;;;;27.54;44.76;100042.09;10291347;28;20050;-68
2023/06/21 05:17:16;;;;;;;5.07;2.90;;;;;;;27.30;44.80;100061.16;10291971;28;20043;-68
2023/06/21 05:22:17;;;;;;;3.85;2.63;;;;;;;27.04;46.06;100122.41;10291345;28;20125;-69
2023/06/21 05:27:18;;;;;;;5.93;2.58;;;;;;;26.80;47.00;100120.38;10291869;28;20574;-69
2023/06/21 05:32:20;;;;;;;4.30;2.30;;;;;;;26.62;47.34;100115.56;10290992;28;20121;-68
2023/06/21 05:37:20;;;;;;;6.38;2.17;;;;;;;26.20;45.58;100122.22;10289728;28;20769;-70
2023/06/21 05:42:21;;;;;;;4.38;2.20;;;;;;;25.61;45.86;100050.25;10289663;28;20065;-69
2023/06/21 05:47:22;;;;;;;5.35;2.30;;;;;;;26.26;46.62;100109.41;10289180;28;20046;-69
2023/06/21 05:52:23;;;;;;;6.38;2.30;;;;;;;26.35;46.07;100108.56;10286864;28;21283;-69
2023/06/21 05:57:25;;;;;;;6.20;2.63;;;;;;;26.28;45.52;100088.19;10290045;28;20512;-68
2023/06/21 06:02:26;;;;;;;9.73;2.20;;;;;;;26.53;45.31;100092.72;10290808;28;20042;-69
2023/06/21 06:07:27;;;;;;;6.75;2.45;;;;;;;26.59;44.08;100077.97;10291028;28;20043;-69
2023/06/21 06:12:28;;;;;;;16.80;2.47;;;;;;;26.88;44.27;100101.81;10290463;28;20053;-69
2023/06/21 06:17:28;;;;;;;27.70;2.60;;;;;;;27.00;44.02;100096.81;10290643;28;20076;-69
2023/06/21 06:22:30;;;;;;;19.08;2.97;;;;;;;27.03;43.90;100085.34;10297131;28;20042;-69
2023/06/21 06:27:32;;;;;;;3.38;1.88;;;;;;;27.09;43.23;100095.13;10298238;28;20050;-69
2023/06/21 06:32:32;;;;;;;6.72;2.45;;;;;;;26.71;42.32;100018.50;10298125;28;20102;-68
2023/06/21 06:37:33;;;;;;;4.05;2.03;;;;;;;26.95;41.78;100054.03;10292133;28;20462;-67
2023/06/21 06:42:34;;;;;;;5.35;2.17;;;;;;;27.25;40.97;100088.50;10278675;28;20086;-69
2023/06/21 06:47:35;;;;;;;5.85;1.90;;;;;;;27.28;39.84;100084.34;10281125;28;20042;-68
2023/06/21 06:52:36;;;;;;;7.53;1.95;;;;;;;27.27;39.07;100053.53;10277817;28;20491;-68
2023/06/21 06:57:36;;;;;;;6.22;2.00;;;;;;;27.53;38.89;100077.88;10277941;28;20091;-69
2023/06/21 07:02:37;;;;;;;7.10;2.15;;;;;;;27.38;38.78;100061.66;10285072;28;20086;-68
2023/06/21 07:07:38;;;;;;;7.53;1.92;;;;;;;27.15;38.15;100055.84;10280887;28;20404;-68
2023/06/21 07:12:39;;;;;;;4.78;2.08;;;;;;;27.21;37.90;100024.69;10274381;28;20043;-68
2023/06/21 07:17:40;;;;;;;22.58;2.42;;;;;;;27.93;38.65;100063.00;10275049;28;20049;-68
2023/06/21 07:22:41;;;;;;;5.22;1.95;;;;;;;27.94;37.26;100059.19;10281306;28;20050;-68
2023/06/21 07:27:42;;;;;;;9.75;2.08;;;;;;;28.22;38.53;100056.69;10281610;28;20042;-68
2023/06/21 07:32:43;;;;;;;7.18;2.03;;;;;;;28.21;36.68;100031.28;10295015;28;20043;-69
2023/06/21 07:37:44;;;;;;;3.90;2.10;;;;;;;28.19;36.82;100049.88;10291481;28;20523;-70
2023/06/21 07:42:46;;;;;;;5.20;2.05;;;;;;;28.12;36.00;100043.13;10294204;28;20062;-68
2023/06/21 07:47:47;;;;;;;7.85;2.28;;;;;;;28.17;35.98;100043.88;10294622;28;20553;-68
2023/06/21 07:52:48;;;;;;;4.95;1.60;;;;;;;28.05;35.38;100051.69;10293658;28;20129;-69
2023/06/21 07:57:48;;;;;;;4.95;1.92;;;;;;;28.27;34.72;100034.78;10289109;28;20086;-68
2023/06/21 08:02:51;;;;;;;7.22;1.80;;;;;;;28.35;34.83;100011.44;10286701;28;20105;-69
2023/06/21 08:07:53;;;;;;;;;;;;;;;28.93;33.40;100024.81;10278715;28;20079;-68
2023/06/21 08:12:54;;;;;;;5.57;1.97;;;;;;;28.56;32.96;99993.66;10277543;28;19973;-69
2023/06/21 08:17:55;;;;;;;5.63;2.20;;;;;;;29.06;32.37;100015.88;10271891;28;20060;-68
2023/06/21 08:22:56;;;;;;;7.03;2.35;;;;;;;29.40;33.32;100009.25;10277172;28;20181;-68
2023/06/21 08:27:57;;;;;;;5.70;1.90;;;;;;;28.94;31.16;99979.16;10282255;28;20045;-68
2023/06/21 08:32:57;;;;;;;4.72;1.90;;;;;;;29.10;31.27;100005.13;10278836;28;20042;-68
2023/06/21 08:37:59;;;;;;;5.05;1.70;;;;;;;29.02;30.49;99998.44;10272703;28;20058;-69
2023/06/21 08:43:00;;;;;;;6.68;1.90;;;;;;;29.15;30.53;99998.78;10289558;28;20457;-68
2023/06/21 08:48:03;;;;;;;6.72;1.77;;;;;;;28.91;29.88;99931.34;10289469;28;20031;-69
2023/06/21 08:53:07;;;;;;;10.68;1.88;;;;;;;29.51;30.62;99988.00;10281364;28;20503;-68
2023/06/21 08:58:15;;;;;;;8.75;2.05;;;;;;;29.16;29.37;99902.72;10280991;28;20043;-68
2023/06/21 09:03:32;;;;;;;8.63;2.20;;;;;;;29.54;29.09;99987.38;10292375;28;20380;-69
2023/06/21 09:08:34;;;;;;;4.57;2.00;;;;;;;29.73;29.83;99985.38;10291057;28;20133;-69
2023/06/21 09:13:40;;;;;;;15.07;2.50;;;;;;;29.76;29.10;99986.69;10290510;28;20045;-71
2023/06/21 09:18:43;;;;;;;9.82;2.17;;;;;;;29.61;28.67;99984.25;10277491;28;20074;-69
2023/06/21 09:23:44;;;;;;;5.15;1.90;;;;;;;29.73;28.41;99968.94;10283601;28;20047;-69
2023/06/21 09:28:45;;;;;;;4.80;1.80;;;;;;;29.97;28.88;99979.69;10291658;28;20130;-69
2023/06/21 09:33:48;;;;;;;5.43;2.13;;;;;;;30.15;29.06;99968.91;10290246;28;20050;-69
2023/06/21 09:38:49;;;;;;;6.57;1.90;;;;;;;30.02;28.08;99971.38;10291356;28;20046;-69
2023/06/21 09:43:49;;;;;;;5.68;1.90;;;;;;;29.90;27.31;99971.06;10291198;28;20082;-69
2023/06/21 09:48:50;;;;;;;7.78;2.05;;;;;;;29.81;27.31;99956.50;10291331;28;20414;-69
2023/06/21 09:53:51;;;;;;;8.63;1.95;;;;;;;30.17;27.36;99958.47;10293354;28;20043;-69
2023/06/21 09:58:52;;;;;;;11.70;1.77;;;;;;;30.31;27.17;99967.50;10298862;28;20039;-69
2023/06/21 10:03:53;;;;;;;5.05;1.45;;;;;;;30.21;26.69;99970.44;10298907;28;20419;-69
2023/06/21 10:08:54;;;;;;;4.30;1.60;;;;;;;30.12;26.44;99958.56;10299481;28;20047;-68
2023/06/21 10:13:55;;;;;;;21.10;2.58;;;;;;;30.20;27.61;99963.31;10298481;28;20097;-69
2023/06/21 10:18:59;;;;;;;9.95;2.03;;;;;;;30.25;27.97;99968.72;10299361;28;20490;-69
2023/06/21 10:24:05;;;;;;;6.78;1.90;;;;;;;30.40;25.99;99954.66;10297013;28;20043;-69
2023/06/21 10:29:09;;;;;;;4.85;1.90;;;;;;;30.41;25.65;99953.53;10297379;28;20064;-69
2023/06/21 10:34:15;;;;;;;5.90;2.38;;;;;;;30.10;26.21;99906.84;10297775;28;20039;-69
2023/06/21 10:39:19;;;;;;;8.80;2.05;;;;;;;30.41;25.97;99945.31;10297283;28;20101;-69
2023/06/21 13:51:50;;;;;;;10.13;1.90;;;;;;;30.26;23.47;99885.41;10572297;27;20404;-68
2023/06/21 13:56:51;;;;;;;29.27;2.97;;;;;;;30.46;24.60;99882.16;10574682;28;20069;-68
2023/06/21 14:01:51;;;;;;;8.43;2.28;;;;;;;30.43;23.30;99877.31;10574465;28;20048;-68
2023/06/21 14:06:52;;;;;;;4.93;1.90;;;;;;;30.37;24.82;99866.78;10573831;28;20032;-68
2023/06/21 14:11:53;;;;;;;10.65;2.28;;;;;;;30.50;24.90;99893.31;10573783;28;20036;-68
2023/06/21 14:16:54;;;;;;;21.25;2.63;;;;;;;29.94;24.32;99810.50;10529913;28;20075;-69
2023/06/21 14:21:55;;;;;;;10.25;2.33;;;;;;;30.31;24.14;99890.75;10531892;28;20040;-68
2023/06/21 14:26:55;;;;;;;10.02;2.25;;;;;;;30.33;23.81;99893.19;10530327;28;20040;-68
2023/06/21 14:31:57;;;;;;;7.90;2.22;;;;;;;30.36;24.12;99889.81;10530885;28;20204;-68
2023/06/21 14:36:57;;;;;;;9.95;2.50;;;;;;;30.19;24.72;99865.81;10503150;28;20128;-68
2023/06/21 14:41:58;;;;;;;8.85;2.15;;;;;;;30.32;25.20;99900.59;10488503;28;20119;-68
2023/06/21 14:46:59;;;;;;;27.88;3.03;;;;;;;30.08;25.64;99869.91;10487814;28;20044;-68
2023/06/21 14:52:00;;;;;;;8.90;2.65;;;;;;;30.17;24.92;99900.94;10488118;28;20055;-68
2023/06/21 14:57:01;;;;;;;15.30;2.80;;;;;;;30.00;25.90;99896.94;10486639;28;20087;-68
2023/06/21 15:02:02;;;;;;;15.18;2.80;;;;;;;29.90;25.73;99894.41;10467058;28;20057;-68
2023/06/21 15:07:04;;;;;;;21.90;3.55;;;;;;;29.35;26.09;99815.13;10460011;28;20071;-68
2023/06/21 15:12:07;;;;;;;12.88;3.03;;;;;;;29.94;25.48;99925.53;10459446;28;20072;-68
2023/06/21 15:17:07;;;;;;;37.15;3.92;;;;;;;29.86;26.37;99917.25;10459409;28;20048;-68
2023/06/21 15:22:08;;;;;;;33.92;5.40;;;;;;;29.77;27.84;99914.41;10457436;28;20037;-69
2023/06/21 15:27:09;;;;;;;120.07;11.00;;;;;;;29.58;28.49;99920.78;10452179;28;20488;-69
2023/06/21 15:32:10;;;;;;;33.08;4.90;;;;;;;29.47;28.25;99930.31;10452623;28;20033;-69
2023/06/21 15:37:10;;;;;;;36.28;6.13;;;;;;;29.23;29.53;99921.50;10452365;28;20048;-69
2023/06/21 15:42:11;;;;;;;24.73;7.03;;;;;;;28.88;29.22;99893.66;10456466;28;20063;-69
2023/06/21 15:47:13;;;;;;;99.80;12.10;;;;;;;28.82;30.87;99927.66;10458510;28;20084;-68
2023/06/21 15:52:14;;;;;;;40.38;10.30;;;;;;;28.12;32.44;99871.09;10457834;28;20037;-68
2023/06/21 15:57:15;;;;;;;41.83;10.48;;;;;;;28.20;32.83;99935.97;10460970;28;20037;-68
2023/06/21 16:02:16;;;;;;;57.67;15.98;;;;;;;27.84;33.71;99927.47;10499417;28;20040;-68
2023/06/21 16:07:17;;;;;;;42.08;12.52;;;;;;;27.50;34.89;99931.94;10498913;28;20044;-68
2023/06/21 16:12:18;;;;;;;85.05;15.23;;;;;;;27.21;36.81;99925.72;10475034;28;20045;-68
2023/06/21 16:17:18;;;;;;;62.20;11.32;;;;;;;26.94;38.11;99939.84;10459675;28;20045;-68
2023/06/21 16:22:20;;;;;;;64.75;14.43;;;;;;;26.23;38.09;99882.09;10496671;28;20093;-68
2023/06/21 16:27:22;;;;;;;49.03;10.48;;;;;;;26.26;40.57;99952.31;10497124;28;20041;-67
2023/06/21 16:32:23;;;;;;;16.15;5.13;;;;;;;26.01;43.08;99952.47;10498276;28;20461;-68
2023/06/21 16:37:24;;;;;;;54.20;7.35;;;;;;;25.15;45.00;99878.22;10494497;28;20072;-68
2023/06/21 16:42:27;;;;;;;22.15;5.05;;;;;;;25.15;46.49;99959.75;10456028;28;20073;-68
2023/06/21 16:47:27;;;;;;;;;;;;;;;25.04;45.44;99948.88;10456922;28;20056;-68
2023/06/21 16:52:28;;;;;;;55.05;14.70;;;;;;;24.28;46.47;99952.34;10455932;28;19927;-68
2023/06/21 16:57:30;;;;;;;49.20;17.60;;;;;;;23.94;48.15;99957.41;10455322;28;20134;-68
2023/06/21 17:02:31;;;;;;;46.83;11.50;;;;;;;23.30;48.17;99890.63;10456186;28;20369;-68
2023/06/21 17:07:32;;;;;;;43.75;12.32;;;;;;;23.52;48.87;99955.56;10455153;28;20040;-70
2023/06/21 17:12:33;;;;;;;40.05;9.20;;;;;;;23.38;48.91;99960.63;10461651;28;20384;-68
2023/06/21 17:17:34;;;;;;;31.65;7.20;;;;;;;22.46;48.79;99840.75;10477989;28;20047;-68
2023/06/21 17:22:35;;;;;;;27.58;7.95;;;;;;;22.74;48.83;99911.94;10469435;28;20052;-67
2023/06/21 17:27:36;;;;;;;34.83;6.13;;;;;;;23.09;48.18;99981.81;10475494;28;20090;-67
2023/06/21 17:32:37;;;;;;;40.10;7.22;;;;;;;22.83;48.27;99955.59;10471499;28;20043;-69
2023/06/21 17:37:38;;;;;;;40.38;12.55;;;;;;;22.87;48.04;99997.34;10481712;28;20035;-68
2023/06/21 17:42:39;;;;;;;27.67;8.50;;;;;;;22.83;48.13;100004.34;10473372;28;20488;-67
2023/06/21 17:47:40;;;;;;;26.80;6.20;;;;;;;22.86;48.08;100012.78;10474049;28;20064;-68
2023/06/21 17:52:41;;;;;;;31.35;6.05;;;;;;;22.71;48.42;99994.50;10473376;28;20041;-70
2023/06/21 17:57:41;;;;;;;14.05;5.72;;;;;;;22.30;48.32;99956.19;10481199;28;20040;-68
2023/06/21 18:02:42;;;;;;;26.95;7.68;;;;;;;22.34;48.03;99989.75;10484155;28;20051;-69
2023/06/21 18:07:43;;;;;;;22.25;5.90;;;;;;;22.22;47.31;99994.50;10472815;28;20148;-67
2023/06/21 18:12:44;;;;;;;16.52;5.50;;;;;;;22.40;46.29;100008.78;10481063;28;20036;-69
2023/06/21 18:17:44;;;;;;;34.10;7.18;;;;;;;22.51;45.65;100021.34;10482039;28;20037;-68
2023/06/21 18:22:45;;;;;;;15.80;4.75;;;;;;;22.32;45.04;99991.94;10486615;28;20036;-68
2023/06/21 18:27:46;;;;;;;19.42;4.45;;;;;;;22.43;44.76;99987.44;10480613;28;20106;-68
2023/06/21 18:32:47;;;;;;;17.85;4.72;;;;;;;22.55;44.77;100007.06;10483260;28;20037;-68
2023/06/21 18:37:48;;;;;;;20.17;4.07;;;;;;;22.54;45.02;100010.03;10481004;28;20033;-69
2023/06/21 18:42:49;;;;;;;17.35;4.50;;;;;;;22.58;45.77;100027.38;10480213;28;20124;-70
2023/06/21 18:47:50;;;;;;;17.25;4.60;;;;;;;22.51;44.88;100021.34;10485482;28;20096;-68
2023/06/21 18:52:51;;;;;;;14.73;6.28;;;;;;;22.36;45.94;100018.47;10480474;28;20032;-69
2023/06/21 18:57:52;;;;;;;39.75;5.68;;;;;;;21.63;45.92;99954.56;10488117;28;20045;-70
2023/06/21 19:02:53;;;;;;;18.27;4.53;;;;;;;21.89;47.63;100025.19;10473079;28;20041;-68
2023/06/21 19:07:53;;;;;;;18.70;5.55;;;;;;;21.70;48.71;100042.78;10462575;28;20049;-67
2023/06/21 19:12:54;;;;;;;17.83;4.95;;;;;;;21.55;49.19;100038.78;10497105;28;20032;-68
2023/06/21 19:17:55;;;;;;;16.20;4.35;;;;;;;21.03;49.90;99990.41;10500526;28;20126;-68
2023/06/21 19:22:56;;;;;;;13.65;4.30;;;;;;;21.09;50.91;100053.41;10500708;28;20051;-68
2023/06/21 19:27:57;;;;;;;12.55;3.50;;;;;;;20.77;51.70;100043.13;10491153;28;20052;-68
2023/06/21 19:33:00;;;;;;;19.13;4.10;;;;;;;20.78;52.47;100068.25;10500126;28;20043;-68
2023/06/21 19:38:01;;;;;;;19.77;4.73;;;;;;;20.57;53.77;100040.88;10498671;28;20111;-68
2023/06/21 19:43:01;;;;;;;19.13;4.78;;;;;;;20.61;53.95;100079.84;10501051;28;20620;-68
2023/06/21 19:48:03;;;;;;;16.70;4.60;;;;;;;20.52;54.62;100073.16;10499594;28;20078;-68
2023/06/21 19:53:04;;;;;;;21.73;4.45;;;;;;;20.44;55.18;100076.22;10499782;28;20047;-69
2023/06/21 19:58:05;;;;;;;14.63;4.10;;;;;;;20.44;54.80;100087.81;10500223;28;20048;-69
2023/06/21 20:03:06;;;;;;;14.50;2.80;;;;;;;20.59;54.07;100083.81;10499679;28;20484;-68
2023/06/21 20:08:06;;;;;;;19.75;2.85;;;;;;;20.75;53.12;100085.75;10498381;28;20578;-69
2023/06/21 20:13:07;;;;;;;12.13;2.72;;;;;;;20.81;52.99;100090.19;10498877;28;20041;-69
2023/06/21 20:18:08;;;;;;;13.90;2.92;;;;;;;20.80;52.98;100096.66;10498473;28;20109;-69
2023/06/21 20:23:13;;;;;;;10.73;3.20;;;;;;;20.32;53.91;100018.78;10498878;28;20052;-69
2023/06/21 20:28:14;;;;;;;8.98;3.05;;;;;;;20.76;53.42;100087.41;10494941;28;20166;-69
2023/06/21 20:33:14;;;;;;;16.17;3.25;;;;;;;20.73;53.45;100077.06;10472186;28;20137;-68
2023/06/21 20:38:17;;;;;;;7.53;2.55;;;;;;;20.69;52.89;100090.22;10456361;28;20075;-68
2023/06/21 20:43:18;;;;;;;10.67;2.73;;;;;;;20.15;52.37;99999.84;10496596;28;20437;-69
2023/06/21 20:48:24;;;;;;;14.45;2.92;;;;;;;20.48;52.77;100069.28;10497581;28;20056;-68
2023/06/21 20:53:28;;;;;;;14.73;3.17;;;;;;;20.50;52.44;100073.38;10496917;28;20074;-68
2023/06/21 20:58:30;;;;;;;15.32;2.70;;;;;;;20.35;52.55;100077.66;10485996;28;20071;-69
2023/06/21 21:03:31;;;;;;;8.27;2.65;;;;;;;20.35;52.77;100075.78;10454478;28;20122;-68
2023/06/21 21:08:32;;;;;;;9.38;2.72;;;;;;;20.18;54.28;100080.25;10456074;28;20438;-68
2023/06/21 21:13:33;;;;;;;9.75;2.97;;;;;;;20.15;54.36;100096.91;10454955;28;20044;-68
2023/06/21 21:18:34;;;;;;;14.27;2.80;;;;;;;19.99;55.07;100079.59;10454555;28;20151;-68
2023/06/21 21:23:35;;;;;;;11.15;2.72;;;;;;;19.94;55.74;100091.06;10454291;28;20159;-68
2023/06/21 21:28:35;;;;;;;8.02;3.05;;;;;;;19.80;56.33;100082.44;10454688;28;20413;-68
2023/06/21 21:33:36;;;;;;;14.18;3.15;;;;;;;19.61;55.99;100075.47;10454741;28;20037;-68
2023/06/21 21:38:37;;;;;;;13.80;3.58;;;;;;;19.44;56.49;100061.88;10454022;28;20037;-68
2023/06/21 21:43:38;;;;;;;15.10;3.78;;;;;;;19.50;57.04;100089.75;10453744;28;20036;-68
2023/06/21 21:48:39;;;;;;;8.88;3.17;;;;;;;19.38;57.32;100095.13;10454791;28;20053;-68
2023/06/21 21:53:40;;;;;;;8.60;3.10;;;;;;;19.24;58.24;100088.31;10454693;28;20386;-69
2023/06/21 21:58:40;;;;;;;13.93;3.40;;;;;;;19.10;58.83;100091.19;10453807;28;20404;-68
2023/06/21 22:03:41;;;;;;;12.23;4.05;;;;;;;18.92;59.14;100093.97;10454021;28;20497;-68
2023/06/21 22:08:42;;;;;;;18.73;5.55;;;;;;;18.19;60.49;100003.47;10454099;28;20051;-68
2023/06/21 22:13:43;;;;;;;11.15;4.88;;;;;;;18.45;61.41;100086.47;10462733;28;20044;-69
2023/06/21 22:18:44;;;;;;;16.95;5.05;;;;;;;17.84;62.32;100000.56;10462460;28;20043;-68
2023/06/21 22:23:46;;;;;;;16.15;4.22;;;;;;;18.33;62.92;100095.53;10462526;28;20501;-68
2023/06/21 22:28:46;;;;;;;15.60;3.60;;;;;;;17.89;63.68;100020.34;10461180;28;20076;-68
2023/06/21 22:33:47;;;;;;;21.17;4.32;;;;;;;18.40;63.96;100090.91;10461512;28;20064;-68
2023/06/21 22:38:48;;;;;;;9.57;3.83;;;;;;;18.31;63.97;100079.63;10461813;28;20064;-68
2023/06/21 22:43:49;;;;;;;12.65;4.05;;;;;;;18.34;64.78;100105.25;10460999;28;20039;-68
2023/06/21 22:49:00;;;;;;;11.77;3.85;;;;;;;17.91;65.14;100066.59;10461383;28;20143;-68
2023/06/21 22:54:05;;;;;;;16.80;5.60;;;;;;;17.94;66.56;100111.03;10460749;28;20041;-68
2023/06/21 22:59:06;;;;;;;15.95;5.18;;;;;;;17.86;66.72;100104.09;10459923;28;20037;-68
2023/06/21 23:04:07;;;;;;;14.00;4.50;;;;;;;17.58;66.91;100085.72;10460251;28;20493;-68
2023/06/21 23:09:08;;;;;;;13.82;4.20;;;;;;;17.69;67.69;100109.16;10459578;28;20459;-68
2023/06/21 23:14:11;;;;;;;11.82;4.10;;;;;;;17.57;68.78;100102.88;10459946;28;20044;-68
2023/06/21 23:19:13;;;;;;;13.77;4.30;;;;;;;17.03;68.68;100016.56;10459242;28;20045;-68
2023/06/21 23:24:13;;;;;;;12.80;3.70;;;;;;;17.39;69.42;100086.72;10458544;28;20064;-69
2023/06/21 23:29:14;;;;;;;19.67;4.22;;;;;;;17.42;69.52;100099.69;10459671;28;20052;-68
2023/06/21 23:34:15;;;;;;;10.57;3.75;;;;;;;16.81;70.39;100010.75;10458635;28;20038;-69
2023/06/21 23:39:16;;;;;;;15.18;3.85;;;;;;;17.29;70.19;100100.59;10458686;28;20135;-68
2023/06/21 23:44:17;;;;;;;27.85;4.13;;;;;;;17.21;70.58;100099.03;10458238;28;20132;-68
2023/06/21 23:49:17;;;;;;;13.80;3.50;;;;;;;17.12;70.84;100078.84;10458234;28;20092;-68
2023/06/21 23:54:25;;;;;;;8.98;3.28;;;;;;;16.67;70.82;100017.19;10458549;28;20055;-68
2023/06/21 23:59:26;;;;;;;8.38;3.65;;;;;;;17.03;71.32;100091.72;10457804;28;20037;-68
